Main page
Satellite images 15-day forecastsClimateMarine weather Cyclones Lightning AirportsFAQ Newsletter About
Weather : Europe Africa North America South America Asia Australia-Oceania Others
Languages Contact

Singapore, Singapore

Military airbase Paya Lebar

latitude: 01-22N, longitude: 103-55E, elevation: 18 m


METAR: WSAP 311500Z 36001KT 9999 FEW018 BKN150 28/24 Q1010
TAF: WSAP 311700Z 3118/0124 VRB05KT 9999 FEW018CB SCT020 TEMPO 3123/0103 3000 TSRA FEW012CB BKN015

Time: 02:23 (18:23 UTC)

Current weather observation

The report was made 3 hours and 23 minutes ago, at 15:00 UTC
Wind 1 kt from the North
Temperature 28°C
Humidity 79%
Pressure 1010 hPa
Visibility 10 km or more
Few clouds at a height of 1800 ft
Broken clouds at a height of 15000 ft

Change units

Forecast

The report was made 1 hour and 23 minutes ago, at 17:00 UTC
Forecast valid from 31 at 18 UTC to 01 at 24 UTC
Wind 5 kt from variable directions
Visibility 10 km or more
Few clouds at a height of 1800 ft, Cumulonimbus.
Scattered clouds at a height of 2000 ft
Temporary
from 31 at 23 UTC to 01 at 03 UTC
Visibility: 3000 m
Few clouds at a height of 1200 ft, Cumulonimbus.
Broken clouds at a height of 1500 ft
thunderstorm rain
The information on this site is subject to a disclaimer
Weather : Europe Africa North America South America Asia Australia-Oceania Others
Satellite images 15-day forecastsClimateMarine weather Cyclones Lightning AirportsFAQ Languages Contact Newsletter About